createdAt,value
2023-05-18T00:02:09.652Z,1.83
2023-05-18T00:04:37.394Z,1.90
2023-05-18T00:07:05.566Z,2.00
2023-05-18T00:09:34.536Z,1.70
2023-05-18T00:12:02.634Z,1.50
2023-05-18T00:14:29.757Z,1.80
2023-05-18T00:16:57.923Z,1.90
2023-05-18T00:19:25.525Z,1.87
2023-05-18T00:21:53.048Z,1.80
2023-05-18T00:24:20.169Z,1.90
2023-05-18T00:26:49.078Z,1.90
2023-05-18T00:29:16.649Z,1.90
2023-05-18T00:31:45.378Z,1.87
2023-05-18T00:34:14.749Z,1.80
2023-05-18T00:36:42.105Z,1.90
2023-05-18T00:39:09.634Z,1.67
2023-05-18T00:41:37.220Z,1.90
2023-05-18T00:44:04.996Z,2.10
2023-05-18T00:46:32.751Z,1.90
2023-05-18T00:49:03.304Z,1.87
2023-05-18T00:51:32.561Z,2.10
2023-05-18T00:54:01.022Z,2.10
2023-05-18T00:56:29.365Z,2.20
2023-05-18T00:58:57.261Z,1.87
2023-05-18T01:01:28.735Z,2.27
2023-05-18T01:04:02.171Z,2.00
2023-05-18T01:06:33.142Z,1.83
2023-05-18T01:09:05.307Z,2.00
2023-05-18T01:11:50.748Z,2.03
2023-05-18T01:14:27.511Z,1.77
2023-05-18T01:16:59.615Z,1.67
2023-05-18T01:19:45.238Z,1.70
2023-05-18T01:22:15.382Z,2.03
2023-05-18T01:24:43.738Z,1.83
2023-05-18T01:27:11.742Z,1.80
2023-05-18T01:29:39.280Z,1.70
2023-05-18T01:32:08.030Z,1.50
2023-05-18T01:34:35.514Z,2.07
2023-05-18T01:37:02.959Z,1.67
2023-05-18T01:39:30.107Z,1.73
2023-05-18T01:42:05.217Z,1.60
2023-05-18T01:44:37.239Z,1.70
2023-05-18T01:47:15.006Z,2.17
2023-05-18T01:49:57.385Z,2.33
2023-05-18T01:52:33.536Z,1.60
2023-05-18T01:55:02.428Z,1.80
2023-05-18T01:57:31.626Z,2.10
2023-05-18T02:00:02.285Z,1.80
2023-05-18T02:02:29.599Z,2.00
2023-05-18T02:04:56.790Z,1.90
2023-05-18T02:07:24.233Z,2.10
2023-05-18T02:09:51.321Z,2.00
2023-05-18T02:12:18.424Z,1.97
2023-05-18T02:14:45.887Z,1.80
2023-05-18T02:17:12.998Z,2.17
2023-05-18T02:19:41.131Z,1.90
2023-05-18T02:22:08.595Z,2.00
2023-05-18T02:24:36.157Z,2.27
2023-05-18T02:27:03.279Z,1.80
2023-05-18T02:29:30.714Z,2.30
2023-05-18T02:31:57.870Z,2.00
2023-05-18T02:34:24.984Z,1.80
2023-05-18T02:36:53.406Z,1.80
2023-05-18T02:39:20.482Z,2.23
2023-05-18T02:41:47.595Z,2.00
2023-05-18T02:44:15.033Z,2.00
2023-05-18T02:46:42.136Z,2.00
2023-05-18T02:49:09.374Z,1.80
2023-05-18T02:51:36.813Z,2.03
2023-05-18T02:54:03.956Z,2.00
2023-05-18T02:56:32.716Z,2.00
2023-05-18T02:59:01.066Z,2.50
2023-05-18T03:01:28.219Z,2.33
2023-05-18T03:03:57.686Z,2.33
2023-05-18T03:06:27.012Z,1.90
2023-05-18T03:08:54.636Z,2.50
2023-05-18T03:11:22.578Z,2.13
2023-05-18T03:13:50.312Z,2.20
2023-05-18T03:16:17.440Z,1.83
2023-05-18T03:18:44.663Z,2.10
2023-05-18T03:21:13.654Z,2.00
2023-05-18T03:23:41.083Z,2.37
2023-05-18T03:26:11.473Z,2.03
2023-05-18T03:28:39.366Z,2.10
2023-05-18T03:31:06.580Z,2.00
2023-05-18T03:33:33.920Z,1.90
2023-05-18T03:36:03.241Z,2.33
2023-05-18T03:38:30.369Z,1.70
2023-05-18T03:40:57.479Z,2.20
2023-05-18T03:43:25.906Z,2.10
2023-05-18T03:45:53.513Z,1.70
2023-05-18T03:48:21.597Z,1.80
2023-05-18T03:50:48.908Z,1.93
2023-05-18T03:53:19.001Z,1.90
2023-05-18T03:55:46.664Z,1.77
2023-05-18T03:58:14.173Z,2.00
2023-05-18T04:00:42.589Z,2.10
2023-05-18T04:03:14.966Z,1.93
2023-05-18T04:05:45.962Z,2.27
2023-05-18T04:08:14.682Z,1.97
2023-05-18T04:10:43.559Z,1.73
2023-05-18T04:13:10.872Z,1.87
2023-05-18T04:15:38.050Z,2.20
2023-05-18T04:18:05.439Z,2.17
2023-05-18T04:20:32.643Z,1.80
2023-05-18T04:23:00.115Z,2.20
2023-05-18T04:25:28.423Z,1.93
2023-05-18T04:27:56.194Z,2.00
2023-05-18T04:30:23.561Z,1.87
2023-05-18T04:32:51.226Z,2.20
2023-05-18T04:35:18.645Z,2.10
2023-05-18T04:37:46.191Z,2.00
2023-05-18T04:40:14.033Z,2.00
2023-05-18T04:42:50.826Z,1.80
2023-05-18T04:45:20.355Z,2.27
2023-05-18T04:47:48.489Z,1.80
2023-05-18T04:50:18.656Z,1.83
2023-05-18T04:52:49.208Z,2.07
2023-05-18T04:55:26.029Z,2.10
2023-05-18T04:57:56.416Z,2.07
2023-05-18T05:00:24.743Z,2.37
2023-05-18T05:02:52.102Z,2.20
2023-05-18T05:05:19.627Z,1.93
2023-05-18T05:07:46.803Z,2.30
2023-05-18T05:10:13.932Z,1.97
2023-05-18T05:12:42.033Z,2.20
2023-05-18T05:15:09.777Z,2.37
2023-05-18T05:17:37.011Z,1.90
2023-05-18T05:20:04.384Z,2.17
2023-05-18T05:22:31.497Z,2.03
2023-05-18T05:24:58.620Z,1.90
2023-05-18T05:27:26.590Z,1.87
2023-05-18T05:29:53.693Z,1.60
2023-05-18T05:32:21.006Z,2.37
2023-05-18T05:34:50.330Z,2.00
2023-05-18T05:37:17.682Z,1.90
2023-05-18T05:39:45.180Z,2.03
2023-05-18T05:42:12.406Z,2.10
2023-05-18T05:44:40.858Z,2.00
2023-05-18T05:47:08.442Z,2.33
2023-05-18T05:49:36.015Z,2.00
2023-05-18T05:52:03.531Z,2.30
2023-05-18T05:54:31.211Z,2.10
2023-05-18T05:56:58.396Z,1.90
2023-05-18T05:59:25.625Z,1.90
2023-05-18T06:01:52.786Z,2.20
2023-05-18T06:04:20.510Z,1.97
2023-05-18T06:06:48.159Z,2.03
2023-05-18T06:09:15.988Z,1.90
2023-05-18T06:11:43.185Z,2.00
2023-05-18T06:14:10.430Z,1.80
2023-05-18T06:16:37.608Z,1.70
2023-05-18T06:19:04.987Z,1.57
2023-05-18T06:21:32.234Z,1.83
2023-05-18T06:24:01.286Z,1.40
2023-05-18T06:26:28.640Z,1.63
2023-05-18T06:28:55.890Z,1.40
2023-05-18T06:31:23.211Z,1.80
2023-05-18T06:33:50.561Z,1.40
2023-05-18T06:36:17.960Z,1.40
2023-05-18T06:38:45.112Z,1.40
2023-05-18T06:41:12.307Z,1.47
2023-05-18T06:43:39.398Z,1.67
2023-05-18T06:46:07.869Z,1.60
2023-05-18T06:48:36.127Z,1.50
2023-05-18T06:51:03.327Z,1.40
2023-05-18T07:04:00.477Z,1.33
2023-05-18T07:06:27.641Z,1.00
2023-05-18T07:08:54.814Z,1.00
2023-05-18T07:11:22.947Z,1.30
2023-05-18T07:13:50.085Z,1.33
2023-05-18T07:16:17.274Z,1.13
2023-05-18T07:18:44.939Z,1.00
2023-05-18T07:21:12.317Z,1.03
2023-05-18T07:23:39.423Z,1.20
2023-05-18T07:26:10.336Z,1.30
2023-05-18T07:28:37.450Z,1.00
2023-05-18T07:31:04.994Z,1.07
2023-05-18T07:33:32.910Z,1.07
2023-05-18T07:36:00.072Z,1.13
2023-05-18T07:38:27.447Z,0.97
2023-05-18T07:40:54.899Z,1.00
2023-05-18T07:43:22.020Z,1.37
2023-05-18T07:45:49.153Z,0.90
2023-05-18T07:48:16.371Z,1.10
2023-05-18T07:50:43.833Z,0.93
2023-05-18T07:53:10.944Z,0.80
2023-05-18T07:55:39.210Z,1.10
2023-05-18T07:58:06.757Z,1.20
2023-05-18T08:00:34.464Z,1.17
2023-05-18T08:03:01.948Z,1.10
2023-05-18T08:05:29.307Z,0.90
2023-05-18T08:07:56.521Z,0.90
2023-05-18T08:10:23.713Z,0.80
2023-05-18T08:12:50.819Z,1.30
2023-05-18T08:15:17.917Z,1.30
2023-05-18T08:17:45.154Z,0.93
2023-05-18T08:20:12.629Z,1.10
2023-05-18T08:22:39.854Z,1.20
2023-05-18T08:25:07.443Z,1.20
2023-05-18T08:37:58.550Z,1.30
2023-05-18T08:40:29.307Z,1.30
2023-05-18T08:43:02.725Z,1.60
2023-05-18T08:45:35.807Z,1.20
2023-05-18T08:48:03.809Z,1.37
2023-05-18T08:50:32.421Z,1.30
2023-05-18T08:53:01.935Z,1.30
2023-05-18T08:55:29.852Z,1.20
2023-05-18T08:58:00.049Z,1.23
2023-05-18T09:00:27.602Z,1.20
2023-05-18T09:02:54.946Z,1.07
2023-05-18T09:05:23.642Z,1.67
2023-05-18T09:07:51.717Z,1.10
2023-05-18T09:10:19.185Z,1.27
2023-05-18T09:12:47.572Z,1.20
2023-05-18T09:15:16.328Z,1.30
2023-05-18T09:17:43.644Z,1.50
2023-05-18T09:20:10.902Z,1.20
2023-05-18T09:22:40.803Z,1.37
2023-05-18T09:25:12.033Z,1.30
2023-05-18T09:27:39.210Z,1.10
2023-05-18T09:30:11.203Z,1.30
2023-05-18T09:32:38.513Z,1.30
2023-05-18T09:35:09.240Z,1.13
2023-05-18T09:37:36.565Z,1.27
2023-05-18T09:40:05.575Z,1.10
2023-05-18T09:42:39.485Z,1.40
2023-05-18T09:45:17.836Z,1.20
2023-05-18T09:47:45.116Z,1.10
2023-05-18T09:50:12.460Z,0.87
2023-05-18T09:52:43.600Z,1.30
2023-05-18T09:55:16.582Z,1.03
2023-05-18T09:57:44.818Z,0.90
2023-05-18T10:00:12.787Z,1.10
2023-05-18T10:02:48.579Z,0.83
2023-05-18T10:05:36.693Z,1.20
2023-05-18T10:08:04.206Z,1.27
2023-05-18T10:10:31.524Z,0.90
2023-05-18T10:12:58.829Z,1.07
2023-05-18T10:15:26.345Z,1.10
2023-05-18T10:17:56.686Z,1.30
2023-05-18T10:20:29.979Z,1.07
2023-05-18T10:22:59.385Z,1.27
2023-05-18T10:25:27.760Z,1.00
2023-05-18T10:28:01.191Z,1.00
2023-05-18T10:30:28.953Z,1.20
2023-05-18T10:32:57.715Z,0.97
2023-05-18T10:35:28.251Z,0.93
2023-05-18T10:37:56.193Z,1.00
2023-05-18T10:40:23.768Z,0.90
2023-05-18T10:42:52.648Z,0.97
2023-05-18T10:45:20.652Z,1.10
2023-05-18T10:47:48.841Z,0.83
2023-05-18T10:50:16.695Z,0.90
2023-05-18T10:52:45.815Z,0.90
2023-05-18T10:55:13.225Z,0.90
2023-05-18T10:57:43.023Z,1.10
2023-05-18T11:00:11.020Z,1.00
2023-05-18T11:02:43.003Z,1.00
2023-05-18T11:05:11.385Z,1.40
2023-05-18T11:07:38.954Z,1.10
2023-05-18T11:10:10.575Z,1.00
2023-05-18T11:12:41.565Z,1.13
2023-05-18T11:15:09.088Z,1.00
2023-05-18T11:17:36.702Z,0.90
2023-05-18T11:20:09.624Z,0.90
2023-05-18T11:22:45.974Z,1.20
2023-05-18T11:25:28.162Z,1.00
2023-05-18T11:27:56.971Z,0.80
2023-05-18T11:30:28.430Z,0.90
2023-05-18T11:33:14.519Z,0.80
2023-05-18T11:36:01.352Z,0.97
2023-05-18T11:38:46.881Z,0.80
2023-05-18T11:41:32.992Z,0.97
2023-05-18T11:44:10.101Z,0.83
2023-05-18T11:46:38.163Z,1.20
2023-05-18T11:49:06.101Z,0.83
2023-05-18T11:51:34.061Z,0.90
2023-05-18T11:54:02.260Z,0.77
2023-05-18T11:56:33.573Z,0.90
2023-05-18T11:59:13.885Z,1.17
2023-05-18T12:01:42.246Z,0.67
2023-05-18T12:04:10.714Z,0.90
2023-05-18T12:06:39.100Z,0.90
2023-05-18T12:09:08.122Z,0.80
2023-05-18T12:11:35.769Z,0.90
2023-05-18T12:14:03.236Z,0.70
2023-05-18T12:16:30.826Z,0.80
2023-05-18T12:18:58.286Z,0.90
2023-05-18T12:21:25.870Z,1.00
2023-05-18T12:23:59.562Z,0.90
2023-05-18T12:26:28.832Z,0.90
2023-05-18T12:28:56.260Z,1.00
2023-05-18T12:31:23.693Z,1.00
2023-05-18T12:33:52.020Z,0.83
2023-05-18T12:36:19.161Z,0.83
2023-05-18T12:38:49.781Z,1.10
2023-05-18T12:41:26.887Z,1.00
2023-05-18T12:43:54.990Z,1.00
2023-05-18T12:46:26.139Z,1.00
2023-05-18T12:48:57.711Z,1.10
2023-05-18T12:51:30.914Z,0.80
2023-05-18T12:53:58.196Z,0.80
2023-05-18T12:56:25.681Z,0.87
2023-05-18T12:58:57.539Z,0.70
2023-05-18T13:01:25.471Z,0.90
2023-05-18T13:03:57.521Z,1.27
2023-05-18T13:06:25.715Z,1.03
2023-05-18T13:08:56.100Z,0.80
2023-05-18T13:11:28.017Z,0.87
2023-05-18T13:13:59.333Z,0.93
2023-05-18T13:16:26.882Z,1.00
2023-05-18T13:18:58.110Z,1.27
2023-05-18T13:21:25.423Z,0.97
2023-05-18T13:23:52.764Z,0.83
2023-05-18T13:26:21.902Z,1.10
2023-05-18T13:28:50.292Z,1.20
2023-05-18T13:31:17.665Z,1.13
2023-05-18T13:33:45.366Z,1.23
2023-05-18T13:36:12.538Z,1.10
2023-05-18T13:38:39.889Z,1.10
2023-05-18T13:41:07.191Z,1.27
2023-05-18T13:43:35.027Z,1.20
2023-05-18T13:46:02.304Z,1.00
2023-05-18T13:48:30.010Z,1.10
2023-05-18T13:50:57.259Z,1.10
2023-05-18T13:53:24.620Z,1.07
2023-05-18T13:55:52.236Z,0.87
2023-05-18T13:58:19.458Z,0.93
2023-05-18T14:00:46.661Z,0.93
2023-05-18T14:03:15.623Z,0.93
2023-05-18T14:05:42.899Z,0.97
2023-05-18T14:08:10.071Z,1.10
2023-05-18T14:10:37.583Z,1.10
2023-05-18T14:13:04.781Z,0.90
2023-05-18T14:15:31.875Z,1.20
2023-05-18T14:17:59.054Z,1.20
2023-05-18T14:20:26.439Z,1.17
2023-05-18T14:22:53.828Z,1.10
2023-05-18T14:25:21.042Z,1.10
2023-05-18T14:27:48.218Z,0.73
2023-05-18T14:30:15.776Z,1.03
2023-05-18T14:35:10.402Z,0.80
2023-05-18T14:37:37.570Z,1.00
2023-05-18T14:40:05.830Z,1.10
2023-05-18T14:42:32.989Z,1.30
2023-05-18T14:45:00.139Z,1.00
2023-05-18T14:47:27.607Z,1.20
2023-05-18T14:49:55.002Z,1.07
2023-05-18T14:52:22.120Z,1.03
2023-05-18T14:54:49.249Z,1.00
2023-05-18T14:57:16.353Z,0.90
2023-05-18T14:59:43.606Z,0.70
2023-05-18T15:02:10.904Z,1.07
2023-05-18T15:04:38.112Z,0.93
2023-05-18T15:07:06.313Z,1.20
2023-05-18T15:09:33.488Z,1.40
2023-05-18T15:12:00.690Z,1.00
2023-05-18T15:14:27.851Z,1.07
2023-05-18T15:16:55.052Z,1.00
2023-05-18T15:19:22.591Z,1.10
2023-05-18T15:21:49.892Z,1.00
2023-05-18T15:24:17.325Z,1.40
2023-05-18T15:26:45.247Z,1.10
2023-05-18T15:29:12.456Z,1.20
2023-05-18T15:34:24.521Z,1.10
2023-05-18T15:36:53.371Z,1.10
2023-05-18T15:39:20.772Z,1.10
2023-05-18T15:41:47.989Z,1.10
2023-05-18T15:44:15.127Z,1.40
2023-05-18T15:46:42.281Z,1.13
2023-05-18T15:49:09.801Z,0.97
2023-05-18T15:51:36.928Z,1.37
2023-05-18T15:54:04.116Z,1.00
2023-05-18T15:56:31.645Z,1.10
2023-05-18T15:58:58.744Z,1.57
2023-05-18T16:01:25.969Z,1.33
2023-05-18T16:03:53.259Z,1.57
2023-05-18T16:06:20.492Z,0.97
2023-05-18T16:08:47.712Z,1.00
2023-05-18T16:11:14.944Z,1.10
2023-05-18T16:13:42.096Z,1.30
2023-05-18T16:16:10.456Z,0.80
2023-05-18T16:18:38.078Z,1.20
2023-05-18T16:21:05.540Z,0.90
2023-05-18T16:23:32.635Z,1.07
2023-05-18T16:26:00.235Z,1.00
2023-05-18T16:28:27.346Z,0.93
2023-05-18T16:30:54.453Z,1.00
2023-05-18T16:33:21.595Z,0.90
2023-05-18T16:35:48.707Z,0.87
2023-05-18T16:38:16.693Z,1.10
2023-05-18T16:40:44.324Z,0.97
2023-05-18T16:43:11.454Z,1.07
2023-05-18T16:45:38.551Z,1.10
2023-05-18T16:48:06.152Z,0.90
2023-05-18T16:50:33.579Z,1.00
2023-05-18T16:53:00.878Z,1.30
2023-05-18T16:55:28.346Z,1.20
2023-05-18T16:57:55.799Z,1.63
2023-05-18T17:00:23.432Z,1.00
2023-05-18T17:02:52.410Z,1.00
2023-05-18T17:05:23.014Z,1.00
2023-05-18T17:07:51.283Z,0.97
2023-05-18T17:10:18.870Z,1.10
2023-05-18T17:12:46.058Z,1.20
2023-05-18T17:15:13.362Z,1.10
2023-05-18T17:17:42.113Z,1.07
2023-05-18T17:20:10.773Z,0.90
2023-05-18T17:22:38.295Z,0.93
2023-05-18T17:25:06.185Z,0.93
2023-05-18T17:27:33.746Z,1.00
2023-05-18T17:30:00.850Z,1.00
2023-05-18T17:32:28.056Z,1.00
2023-05-18T17:34:55.191Z,0.80
2023-05-18T17:37:22.548Z,0.80
2023-05-18T17:39:49.720Z,0.80
2023-05-18T17:42:17.033Z,1.10
2023-05-18T17:44:45.572Z,0.80
2023-05-18T17:47:14.548Z,0.90
2023-05-18T17:49:41.865Z,1.10
2023-05-18T17:52:09.026Z,0.90
2023-05-18T17:54:36.259Z,1.00
2023-05-18T17:57:03.413Z,1.10
2023-05-18T17:59:30.578Z,1.20
2023-05-18T18:01:57.731Z,1.20
2023-05-18T18:04:25.015Z,1.00
2023-05-18T18:06:54.373Z,1.20
2023-05-18T18:09:22.538Z,1.00
2023-05-18T18:11:49.857Z,1.00
2023-05-18T18:14:17.341Z,1.00
2023-05-18T18:16:45.254Z,1.00
2023-05-18T18:19:13.171Z,1.10
2023-05-18T18:21:40.352Z,1.10
2023-05-18T18:24:07.881Z,1.13
2023-05-18T18:26:40.324Z,1.27
2023-05-18T18:29:08.076Z,1.07
2023-05-18T18:31:35.408Z,1.30
2023-05-18T18:34:02.699Z,1.30
2023-05-18T18:36:30.249Z,1.27
2023-05-18T18:38:57.451Z,1.47
2023-05-18T18:41:24.662Z,1.27
2023-05-18T18:43:54.305Z,1.27
2023-05-18T18:46:21.694Z,1.40
2023-05-18T18:48:48.813Z,1.53
2023-05-18T18:51:16.250Z,1.40
2023-05-18T18:53:43.345Z,1.00
2023-05-18T18:56:10.556Z,1.10
2023-05-18T18:58:38.076Z,1.40
2023-05-18T19:01:05.221Z,1.40
2023-05-18T19:03:32.975Z,1.27
2023-05-18T19:06:00.550Z,1.10
2023-05-18T19:08:27.676Z,1.30
2023-05-18T19:10:55.760Z,1.10
2023-05-18T19:13:23.196Z,1.70
2023-05-18T19:15:51.298Z,1.60
2023-05-18T19:18:18.587Z,1.30
2023-05-18T19:20:45.944Z,1.40
2023-05-18T19:23:13.088Z,1.23
2023-05-18T19:25:40.311Z,1.30
2023-05-18T19:28:07.434Z,1.07
2023-05-18T19:30:34.602Z,1.30
2023-05-18T19:33:01.797Z,1.23
2023-05-18T19:35:29.361Z,1.60
2023-05-18T19:37:57.147Z,1.50
2023-05-18T19:40:27.148Z,1.67
2023-05-18T19:42:54.680Z,1.40
2023-05-18T19:45:22.005Z,1.23
2023-05-18T19:47:49.146Z,1.40
2023-05-18T19:50:16.332Z,1.30
2023-05-18T19:52:43.567Z,1.37
2023-05-18T19:55:10.777Z,1.67
2023-05-18T19:57:38.429Z,1.50
2023-05-18T20:00:07.021Z,1.47
2023-05-18T20:02:34.196Z,1.40
2023-05-18T20:05:01.550Z,1.53
2023-05-18T20:07:28.681Z,1.60
2023-05-18T20:09:55.847Z,1.50
2023-05-18T20:12:23.081Z,1.60
2023-05-18T20:14:51.201Z,1.50
2023-05-18T20:17:18.887Z,1.53
2023-05-18T20:19:50.906Z,1.27
2023-05-18T20:22:18.465Z,1.80
2023-05-18T20:24:46.004Z,1.23
2023-05-18T20:27:14.381Z,1.50
2023-05-18T20:29:41.807Z,1.47
2023-05-18T20:32:09.019Z,1.50
2023-05-18T20:34:36.709Z,1.40
2023-05-18T20:37:04.135Z,1.23
2023-05-18T20:39:31.703Z,1.57
2023-05-18T20:41:59.525Z,2.17
2023-05-18T20:44:28.718Z,9.67
2023-05-18T20:46:55.945Z,2.77
2023-05-18T20:49:25.103Z,2.90
2023-05-18T20:51:52.353Z,3.50
2023-05-18T20:54:21.186Z,2.50
2023-05-18T20:56:48.569Z,2.03
2023-05-18T20:59:16.247Z,2.00
2023-05-18T21:01:43.528Z,1.80
2023-05-18T21:04:12.800Z,2.40
2023-05-18T21:06:40.807Z,6.33
2023-05-18T21:09:08.424Z,11.40
2023-05-18T21:11:35.927Z,6.30
2023-05-18T21:14:03.458Z,3.40
2023-05-18T21:16:30.654Z,2.53
2023-05-18T21:18:58.104Z,2.27
2023-05-18T21:21:25.215Z,1.77
2023-05-18T21:23:52.416Z,1.70
2023-05-18T21:26:19.574Z,1.70
2023-05-18T21:28:46.756Z,1.70
2023-05-18T21:31:13.999Z,1.80
2023-05-18T21:33:42.139Z,2.00
2023-05-18T21:36:09.844Z,1.73
2023-05-18T21:38:37.083Z,3.73
2023-05-18T21:41:04.280Z,3.93
2023-05-18T21:43:31.458Z,3.80
2023-05-18T21:45:58.663Z,2.30
2023-05-18T21:48:26.057Z,2.30
2023-05-18T21:50:53.173Z,2.60
2023-05-18T21:53:20.346Z,2.40
2023-05-18T21:55:47.500Z,2.37
2023-05-18T21:58:14.613Z,2.10
2023-05-18T22:00:41.790Z,2.20
2023-05-18T22:03:08.992Z,1.80
2023-05-18T22:05:36.271Z,2.00
2023-05-18T22:08:03.478Z,1.83
2023-05-18T22:10:32.436Z,1.80
2023-05-18T22:13:00.652Z,1.73
2023-05-18T22:15:27.856Z,1.70
2023-05-18T22:17:55.690Z,2.07
2023-05-18T22:20:23.870Z,2.10
2023-05-18T22:22:50.981Z,1.90
2023-05-18T22:25:18.416Z,2.00
2023-05-18T22:27:45.758Z,2.07
2023-05-18T22:30:14.093Z,1.80
2023-05-18T22:32:41.321Z,2.03
2023-05-18T22:35:08.991Z,2.17
2023-05-18T22:37:36.300Z,2.00
2023-05-18T22:40:06.245Z,2.07
2023-05-18T22:42:33.714Z,1.73
2023-05-18T22:45:00.809Z,1.87
2023-05-18T22:47:28.575Z,1.80
2023-05-18T22:49:55.684Z,1.60
2023-05-18T22:52:22.920Z,1.70
2023-05-18T22:54:50.561Z,1.90
2023-05-18T22:57:17.657Z,2.00
2023-05-18T22:59:44.737Z,2.20
2023-05-18T23:02:12.587Z,2.00
2023-05-18T23:04:39.722Z,2.00
2023-05-18T23:07:07.268Z,2.30
2023-05-18T23:09:36.998Z,2.00
2023-05-18T23:12:04.510Z,2.00
2023-05-18T23:14:33.670Z,1.90
2023-05-18T23:17:01.412Z,2.00
2023-05-18T23:19:28.576Z,2.00
2023-05-18T23:21:56.476Z,2.10
2023-05-18T23:24:23.622Z,2.20
2023-05-18T23:26:50.857Z,2.00
2023-05-18T23:29:18.158Z,2.30
2023-05-18T23:31:45.651Z,2.57
2023-05-18T23:34:12.880Z,2.07
2023-05-18T23:36:42.540Z,2.13
2023-05-18T23:39:09.979Z,1.93
2023-05-18T23:41:37.588Z,2.10
2023-05-18T23:44:04.840Z,2.30
2023-05-18T23:46:32.459Z,2.20
2023-05-18T23:48:59.949Z,2.30
2023-05-18T23:51:29.791Z,2.10
2023-05-18T23:53:57.189Z,2.20
2023-05-18T23:56:24.907Z,2.37
2023-05-18T23:58:52.146Z,2.30
